createdAt,value
2016-03-17T00:00:19.697Z,4.19
2016-03-17T00:01:19.637Z,4.13
2016-03-17T00:02:19.546Z,4.16
2016-03-17T00:03:19.533Z,4.22
2016-03-17T00:04:19.458Z,4.14
2016-03-17T00:05:19.382Z,4.08
2016-03-17T00:06:19.306Z,4.17
2016-03-17T00:07:19.325Z,4.08
2016-03-17T00:08:19.296Z,4.16
2016-03-17T00:09:19.127Z,4.1
2016-03-17T00:10:19.161Z,4.12
2016-03-17T00:11:19.022Z,4.13
2016-03-17T00:12:18.979Z,4.14
2016-03-17T00:13:18.950Z,4.22
2016-03-17T00:14:18.938Z,4.13
2016-03-17T00:15:18.799Z,4.13
2016-03-17T00:16:18.771Z,4.1
2016-03-17T00:17:18.680Z,4.24
2016-03-17T00:18:18.635Z,4.13
2016-03-17T00:19:18.655Z,3.95
2016-03-17T00:20:18.516Z,3.94
2016-03-17T00:21:18.488Z,3.99
2016-03-17T00:22:18.491Z,4.05
2016-03-17T00:23:18.321Z,4.05
2016-03-17T00:24:18.277Z,4.05
2016-03-17T00:25:18.233Z,4.05
2016-03-17T00:26:18.173Z,4.08
2016-03-17T00:27:18.081Z,4.04
2016-03-17T00:28:18.037Z,4.01
2016-03-17T00:29:18.040Z,3.86
2016-03-17T00:30:17.918Z,3.96
2016-03-17T00:31:17.843Z,3.88
2016-03-17T00:32:17.829Z,3.87
2016-03-17T00:33:17.754Z,3.95
2016-03-17T00:34:17.678Z,3.98
2016-03-17T00:35:17.603Z,3.81
2016-03-17T00:36:17.559Z,3.8
2016-03-17T00:37:17.500Z,3.8
2016-03-17T00:38:17.425Z,3.81
2016-03-17T00:39:17.380Z,3.81
2016-03-17T00:40:17.383Z,3.7
2016-03-17T00:41:17.260Z,3.83
2016-03-17T00:42:17.216Z,3.86
2016-03-17T00:43:17.140Z,3.88
2016-03-17T00:44:17.080Z,3.95
2016-03-17T00:45:17.014Z,3.98
2016-03-17T00:46:16.953Z,3.84
2016-03-17T00:47:16.941Z,3.81
2016-03-17T00:48:16.881Z,3.88
2016-03-17T00:49:16.775Z,3.94
2016-03-17T00:50:16.731Z,3.91
2016-03-17T00:51:16.733Z,3.92
2016-03-17T00:52:16.611Z,3.91
2016-03-17T00:53:16.536Z,3.91
2016-03-17T00:54:15.757Z,3.99
2016-03-17T00:55:16.463Z,3.94
2016-03-17T00:56:16.466Z,3.99
2016-03-17T00:57:16.312Z,3.84
2016-03-17T00:58:16.236Z,3.88
2016-03-17T00:59:16.224Z,3.95
2016-03-17T01:00:16.117Z,3.91
2016-03-17T01:01:16.104Z,3.96
2016-03-17T01:02:16.185Z,3.91
2016-03-17T01:03:15.953Z,3.98
2016-03-17T01:04:15.909Z,3.91
2016-03-17T01:05:15.818Z,3.74
2016-03-17T01:06:15.852Z,3.76
2016-03-17T01:07:15.990Z,3.86
2016-03-17T01:08:15.649Z,3.68
2016-03-17T01:09:15.621Z,3.7
2016-03-17T01:10:15.560Z,3.8
2016-03-17T01:11:15.470Z,3.83
2016-03-17T01:12:15.441Z,3.78
2016-03-17T01:13:15.366Z,3.77
2016-03-17T01:14:15.353Z,3.81
2016-03-17T01:15:15.262Z,3.77
2016-03-17T01:16:15.201Z,3.77
2016-03-17T01:17:15.018Z,3.84
2016-03-17T01:18:15.051Z,3.81
2016-03-17T01:19:15.038Z,3.88
2016-03-17T01:20:14.963Z,3.8
2016-03-17T01:21:14.872Z,3.83
2016-03-17T01:22:14.843Z,3.87
2016-03-17T01:23:14.783Z,3.78
2016-03-17T01:24:14.692Z,3.7
2016-03-17T01:25:14.711Z,3.7
2016-03-17T01:26:14.604Z,3.74
2016-03-17T01:27:14.559Z,3.77
2016-03-17T01:28:14.500Z,3.81
2016-03-17T01:29:14.472Z,3.78
2016-03-17T01:30:14.364Z,3.81
2016-03-17T01:31:14.320Z,3.84
2016-03-17T01:32:14.135Z,3.8
2016-03-17T01:33:14.200Z,3.86
2016-03-17T01:34:14.141Z,3.73
2016-03-17T01:35:14.049Z,3.65
2016-03-17T01:36:14.052Z,3.7
2016-03-17T01:37:13.961Z,3.66
2016-03-17T01:38:13.871Z,3.65
2016-03-17T01:39:13.827Z,3.65
2016-03-17T01:40:13.752Z,3.63
2016-03-17T01:41:13.707Z,3.69
2016-03-17T01:42:13.710Z,3.78
2016-03-17T01:43:13.603Z,3.69
2016-03-17T01:44:13.559Z,3.69
2016-03-17T01:45:13.499Z,3.62
2016-03-17T01:46:13.440Z,3.65
2016-03-17T01:47:13.504Z,3.6
2016-03-17T01:48:13.273Z,3.58
2016-03-17T01:49:13.228Z,3.65
2016-03-17T01:50:13.231Z,3.58
2016-03-17T01:51:13.109Z,3.65
2016-03-17T01:52:13.034Z,3.56
2016-03-17T01:53:12.990Z,3.63
2016-03-17T01:54:12.914Z,3.59
2016-03-17T01:55:12.901Z,3.68
2016-03-17T01:56:12.857Z,3.69
2016-03-17T01:57:12.734Z,3.66
2016-03-17T01:58:12.706Z,3.73
2016-03-17T01:59:12.661Z,3.53
2016-03-17T02:00:12.618Z,3.59
2016-03-17T02:01:12.495Z,3.58
2016-03-17T02:02:12.451Z,3.5
2016-03-17T02:03:12.375Z,3.53
2016-03-17T02:04:12.331Z,3.55
2016-03-17T02:05:12.271Z,3.45
2016-03-17T02:06:12.227Z,3.51
2016-03-17T02:07:12.167Z,3.55
2016-03-17T02:08:12.107Z,3.51
2016-03-17T02:09:12.047Z,3.56
2016-03-17T02:10:11.988Z,3.47
2016-03-17T02:11:11.913Z,3.44
2016-03-17T02:12:11.837Z,3.36
2016-03-17T02:13:11.825Z,3.41
2016-03-17T02:14:11.749Z,3.37
2016-03-17T02:15:11.705Z,3.34
2016-03-17T02:16:11.646Z,3.36
2016-03-17T02:17:11.554Z,3.36
2016-03-17T02:18:11.494Z,3.25
2016-03-17T02:19:11.434Z,3.36
2016-03-17T02:20:11.390Z,3.31
2016-03-17T02:21:11.346Z,3.29
2016-03-17T02:22:11.270Z,3.37
2016-03-17T02:23:11.227Z,3.37
2016-03-17T02:24:11.182Z,3.42
2016-03-17T02:25:11.091Z,3.42
2016-03-17T02:26:11.016Z,3.37
2016-03-17T02:27:10.956Z,3.4
2016-03-17T02:28:10.959Z,3.36
2016-03-17T02:29:10.851Z,3.4
2016-03-17T02:30:10.808Z,3.34
2016-03-17T02:31:10.748Z,3.36
2016-03-17T02:32:10.673Z,3.42
2016-03-17T02:33:10.675Z,3.29
2016-03-17T02:34:10.600Z,3.34
2016-03-17T02:35:10.508Z,3.34
2016-03-17T02:36:10.417Z,3.19
2016-03-17T02:37:10.373Z,3.22
2016-03-17T02:38:10.330Z,3.21
2016-03-17T02:39:10.223Z,3.31
2016-03-17T02:40:10.194Z,3.36
2016-03-17T02:41:10.150Z,3.21
2016-03-17T02:42:10.090Z,3.25
2016-03-17T02:43:10.014Z,3.29
2016-03-17T02:44:09.955Z,3.32
2016-03-17T02:45:09.879Z,3.21
2016-03-17T02:46:09.819Z,3.19
2016-03-17T02:47:09.838Z,3.28
2016-03-17T02:48:09.716Z,3.19
2016-03-17T02:49:09.530Z,3.22
2016-03-17T02:50:09.627Z,3.13
2016-03-17T02:51:09.568Z,3.08
2016-03-17T02:52:09.476Z,3.13
2016-03-17T02:53:09.433Z,3.07
2016-03-17T02:54:09.341Z,3.11
2016-03-17T02:55:09.297Z,3.11
2016-03-17T02:56:09.237Z,3.07
2016-03-17T02:57:09.240Z,2.98
2016-03-17T02:58:09.101Z,3.08
2016-03-17T02:59:09.090Z,3.1
2016-03-17T03:00:09.045Z,3.11
2016-03-17T03:01:08.922Z,3.11
2016-03-17T03:02:08.909Z,3.1
2016-03-17T03:03:08.803Z,3.08
2016-03-17T03:04:08.759Z,3.08
2016-03-17T03:05:08.684Z,2.87
2016-03-17T03:06:08.686Z,2.93
2016-03-17T03:07:08.642Z,2.9
2016-03-17T03:08:08.567Z,2.9
2016-03-17T03:09:08.460Z,2.97
2016-03-17T03:10:08.446Z,2.87
2016-03-17T03:11:08.386Z,2.97
2016-03-17T03:12:08.264Z,2.93
2016-03-17T03:13:08.220Z,2.86
2016-03-17T03:14:08.160Z,2.9
2016-03-17T03:15:08.085Z,2.9
2016-03-17T03:16:08.071Z,2.9
2016-03-17T03:17:08.027Z,2.93
2016-03-17T03:18:07.937Z,2.9
2016-03-17T03:19:07.877Z,2.87
2016-03-17T03:20:07.817Z,2.9
2016-03-17T03:21:07.741Z,2.95
2016-03-17T03:22:07.698Z,2.89
2016-03-17T03:23:07.685Z,2.98
2016-03-17T03:24:07.579Z,2.93
2016-03-17T03:25:07.488Z,2.98
2016-03-17T03:26:07.443Z,2.92
2016-03-17T03:27:07.368Z,2.97
2016-03-17T03:28:07.323Z,3.03
2016-03-17T03:29:07.295Z,2.98
2016-03-17T03:30:07.235Z,2.93
2016-03-17T03:31:07.143Z,2.92
2016-03-17T03:32:07.131Z,2.92
2016-03-17T03:33:06.992Z,2.86
2016-03-17T03:34:06.980Z,2.87
2016-03-17T03:35:06.920Z,2.93
2016-03-17T03:36:06.861Z,2.95
2016-03-17T03:37:06.770Z,2.9
2016-03-17T03:38:06.744Z,2.89
2016-03-17T03:39:06.640Z,2.87
2016-03-17T03:40:06.553Z,2.95
2016-03-17T03:41:06.496Z,2.83
2016-03-17T03:42:06.408Z,2.68
2016-03-17T03:43:06.345Z,2.79
2016-03-17T03:44:06.312Z,2.65
2016-03-17T03:45:06.232Z,2.62
2016-03-17T03:46:06.184Z,2.54
2016-03-17T03:47:06.103Z,2.67
2016-03-17T03:48:06.059Z,2.51
2016-03-17T03:49:05.981Z,2.54
2016-03-17T03:50:05.920Z,2.61
2016-03-17T03:51:05.858Z,2.65
2016-03-17T03:52:05.767Z,2.64
2016-03-17T03:53:05.737Z,2.6
2016-03-17T03:54:05.693Z,2.61
2016-03-17T03:55:05.615Z,2.5
2016-03-17T03:56:05.540Z,2.49
2016-03-17T03:57:05.510Z,2.61
2016-03-17T03:58:05.451Z,2.54
2016-03-17T03:59:05.375Z,2.5
2016-03-17T04:00:05.316Z,2.57
2016-03-17T04:01:05.302Z,2.64
2016-03-17T04:02:05.212Z,2.67
2016-03-17T04:03:05.120Z,2.71
2016-03-17T04:04:05.045Z,2.67
2016-03-17T04:05:04.984Z,2.69
2016-03-17T04:06:04.925Z,2.71
2016-03-17T04:07:04.896Z,2.75
2016-03-17T04:08:04.805Z,2.79
2016-03-17T04:09:04.792Z,2.86
2016-03-17T04:10:04.701Z,2.86
2016-03-17T04:11:04.689Z,2.8
2016-03-17T04:12:04.614Z,2.89
2016-03-17T04:13:04.569Z,2.95
2016-03-17T04:14:04.447Z,2.85
2016-03-17T04:15:04.465Z,2.79
2016-03-17T04:16:04.342Z,2.89
2016-03-17T04:17:04.314Z,2.93
2016-03-17T04:18:03.958Z,2.9
2016-03-17T04:19:04.178Z,2.82
2016-03-17T04:20:04.119Z,2.89
2016-03-17T04:21:04.090Z,2.95
2016-03-17T04:22:04.015Z,2.89
2016-03-17T04:23:03.955Z,2.93
2016-03-17T04:24:03.911Z,2.92
2016-03-17T04:25:03.836Z,2.93
2016-03-17T04:26:03.791Z,2.86
2016-03-17T04:27:03.716Z,2.97
2016-03-17T04:28:03.672Z,2.92
2016-03-17T04:29:03.597Z,2.87
2016-03-17T04:30:03.505Z,3
2016-03-17T04:31:03.461Z,2.92
2016-03-17T04:32:03.432Z,2.97
2016-03-17T04:33:03.341Z,2.98
2016-03-17T04:34:03.297Z,3.03
2016-03-17T04:35:03.221Z,3
2016-03-17T04:36:03.162Z,2.93
2016-03-17T04:37:03.101Z,2.98
2016-03-17T04:38:03.026Z,3
2016-03-17T04:39:02.967Z,3
2016-03-17T04:40:02.907Z,2.95
2016-03-17T04:41:02.879Z,3.01
2016-03-17T04:42:02.788Z,2.95
2016-03-17T04:43:02.743Z,3.04
2016-03-17T04:44:02.700Z,3.04
2016-03-17T04:45:02.655Z,3.07
2016-03-17T04:46:02.548Z,3.08
2016-03-17T04:47:02.520Z,3.01
2016-03-17T04:48:02.445Z,3.07
2016-03-17T04:49:02.447Z,3.01
2016-03-17T04:50:02.341Z,3.05
2016-03-17T04:51:02.249Z,3.05
2016-03-17T04:52:02.205Z,3.14
2016-03-17T04:53:02.191Z,3.13
2016-03-17T04:54:02.101Z,3.13
2016-03-17T04:55:02.041Z,3.1
2016-03-17T04:56:01.982Z,3.16
2016-03-17T04:57:01.890Z,3.11
2016-03-17T04:58:01.847Z,3.03
2016-03-17T04:59:01.802Z,3.03
2016-03-17T05:00:01.711Z,2.93
2016-03-17T05:01:01.651Z,3.11
2016-03-17T05:02:01.576Z,3.13
2016-03-17T05:03:01.547Z,3.05
2016-03-17T05:04:01.456Z,3.1
2016-03-17T05:05:01.427Z,3.21
2016-03-17T05:06:01.352Z,3.16
2016-03-17T05:07:01.292Z,3.1
2016-03-17T05:08:01.248Z,3.07
2016-03-17T05:09:01.234Z,3.04
2016-03-17T05:10:01.112Z,3.1
2016-03-17T05:11:01.053Z,3.16
2016-03-17T05:12:00.993Z,3.1
2016-03-17T05:13:00.965Z,3.08
2016-03-17T05:14:00.890Z,3.18
2016-03-17T05:15:00.892Z,3.16
2016-03-17T05:16:00.800Z,3.18
2016-03-17T05:17:00.710Z,3.1
2016-03-17T05:18:00.728Z,3.11
2016-03-17T05:19:00.590Z,3.13
2016-03-17T05:20:00.499Z,3.18
2016-03-17T05:21:00.502Z,3.14
2016-03-17T05:22:00.427Z,3.08
2016-03-17T05:23:00.320Z,3.18
2016-03-17T05:24:00.323Z,3.19
2016-03-17T05:25:00.685Z,3.14
2016-03-17T05:26:00.156Z,3.16
2016-03-17T05:27:00.096Z,3.14
2016-03-17T05:28:00.068Z,3.08
2016-03-17T05:28:59.992Z,3.11
2016-03-17T05:29:59.948Z,3.14
2016-03-17T05:30:59.904Z,3.19
2016-03-17T05:31:59.828Z,3.18
2016-03-17T05:32:59.847Z,3.22
2016-03-17T05:33:59.709Z,3.21
2016-03-17T05:34:59.618Z,3.25
2016-03-17T05:35:59.543Z,3.19
2016-03-17T05:36:59.513Z,3.19
2016-03-17T05:37:59.470Z,3.28
2016-03-17T05:38:59.394Z,3.16
2016-03-17T05:39:59.350Z,3.23
2016-03-17T05:40:59.321Z,3.29
2016-03-17T05:41:59.215Z,3.22
2016-03-17T05:42:59.140Z,3.22
2016-03-17T05:43:59.079Z,3.19
2016-03-17T05:44:59.098Z,3.23
2016-03-17T05:45:58.975Z,3.25
2016-03-17T05:46:58.915Z,3.23
2016-03-17T05:47:58.903Z,3.28
2016-03-17T05:48:58.842Z,3.22
2016-03-17T05:49:58.736Z,3.26
2016-03-17T05:50:58.660Z,3.14
2016-03-17T05:51:58.647Z,3.22
2016-03-17T05:52:58.572Z,3.23
2016-03-17T05:53:58.528Z,3.25
2016-03-17T05:54:58.453Z,2.93
2016-03-17T05:55:58.361Z,3.05
2016-03-17T05:56:58.317Z,3.11
2016-03-17T05:57:58.257Z,3.1
2016-03-17T05:58:58.213Z,3.14
2016-03-17T05:59:58.154Z,3.16
2016-03-17T06:00:58.078Z,3.23
2016-03-17T06:01:58.019Z,3.25
2016-03-17T06:02:57.927Z,3.21
2016-03-17T06:03:57.899Z,3.31
2016-03-17T06:04:57.839Z,3.32
2016-03-17T06:05:57.811Z,3.36
2016-03-17T06:06:57.735Z,3.26
2016-03-17T06:07:57.738Z,3.26
2016-03-17T06:08:57.599Z,3.22
2016-03-17T06:09:57.556Z,3.22
2016-03-17T06:10:57.512Z,3.31
2016-03-17T06:11:57.482Z,3.32
2016-03-17T06:12:57.392Z,3.18
2016-03-17T06:13:57.300Z,3.31
2016-03-17T06:14:57.288Z,3.36
2016-03-17T06:15:57.197Z,3.31
2016-03-17T06:16:57.121Z,3.31
2016-03-17T06:17:57.078Z,3.19
2016-03-17T06:18:57.017Z,3.28
2016-03-17T06:19:56.926Z,3.29
2016-03-17T06:20:56.929Z,3.32
2016-03-17T06:21:56.806Z,3.32
2016-03-17T06:22:56.778Z,3.29
2016-03-17T06:23:56.608Z,3.31
2016-03-17T06:24:56.642Z,3.18
2016-03-17T06:25:56.598Z,3.25
2016-03-17T06:26:56.507Z,3.25
2016-03-17T06:27:56.447Z,3.31
2016-03-17T06:28:56.418Z,3.36
2016-03-17T06:29:56.360Z,3.32
2016-03-17T06:30:56.299Z,3.32
2016-03-17T06:31:56.208Z,3.26
2016-03-17T06:32:56.164Z,3.32
2016-03-17T06:33:56.121Z,3.22
2016-03-17T06:34:56.044Z,3.22
2016-03-17T06:35:55.985Z,3.19
2016-03-17T06:36:56.158Z,3.31
2016-03-17T06:37:56.173Z,3.29
2016-03-17T06:38:55.830Z,3.25
2016-03-17T06:39:55.976Z,3.11
2016-03-17T06:40:55.844Z,3.21
2016-03-17T06:41:55.471Z,3.26
2016-03-17T06:42:55.567Z,3.21
2016-03-17T06:43:55.508Z,3.23
2016-03-17T06:44:55.307Z,3.23
2016-03-17T06:45:55.435Z,3.36
2016-03-17T06:46:55.328Z,3.26
2016-03-17T06:47:55.299Z,3.22
2016-03-17T06:48:55.224Z,3.29
2016-03-17T06:49:55.246Z,3.25
2016-03-17T06:50:55.155Z,3.22
2016-03-17T06:51:55.016Z,3.25
2016-03-17T06:52:54.957Z,3.22
2016-03-17T06:53:54.928Z,3.23
2016-03-17T06:54:54.884Z,3.16
2016-03-17T06:55:54.808Z,3.21
2016-03-17T06:56:54.795Z,3.22
2016-03-17T06:57:54.688Z,3.31
2016-03-17T06:58:54.660Z,3.19
2016-03-17T06:59:54.553Z,3.29
2016-03-17T07:00:54.494Z,3.28
2016-03-17T07:01:54.512Z,3.31
2016-03-17T07:02:54.436Z,3.29
2016-03-17T07:03:54.345Z,3.34
2016-03-17T07:04:54.301Z,3.41
2016-03-17T07:05:54.195Z,3.4
2016-03-17T07:06:54.041Z,3.37
2016-03-17T07:07:54.075Z,3.32
2016-03-17T07:08:54.062Z,3.32
2016-03-17T07:09:53.987Z,3.32
2016-03-17T07:10:53.912Z,3.42
2016-03-17T07:11:53.883Z,3.41
2016-03-17T07:12:53.854Z,3.36
2016-03-17T07:13:53.717Z,3.44
2016-03-17T07:14:53.703Z,3.37
2016-03-17T07:15:53.628Z,3.53
2016-03-17T07:16:53.568Z,3.45
2016-03-17T07:17:53.492Z,3.47
2016-03-17T07:18:53.449Z,3.47
2016-03-17T07:19:53.405Z,3.42
2016-03-17T07:20:53.297Z,3.53
2016-03-17T07:21:53.285Z,3.48
2016-03-17T07:22:53.224Z,3.45
2016-03-17T07:23:53.196Z,3.5
2016-03-17T07:24:53.121Z,3.51
2016-03-17T07:25:53.046Z,3.47
2016-03-17T07:26:52.971Z,3.51
2016-03-17T07:27:52.911Z,3.58
2016-03-17T07:28:52.882Z,3.59
2016-03-17T07:29:52.760Z,3.6
2016-03-17T07:30:52.824Z,3.4
2016-03-17T07:31:52.702Z,3.51
2016-03-17T07:32:52.627Z,3.36
2016-03-17T07:33:52.552Z,3.53
2016-03-17T07:34:52.367Z,3.47
2016-03-17T07:35:52.509Z,3.55
2016-03-17T07:36:52.387Z,3.55
2016-03-17T07:37:52.312Z,3.5
2016-03-17T07:38:52.362Z,3.5
2016-03-17T07:39:52.209Z,3.45
2016-03-17T07:40:52.148Z,3.56
2016-03-17T07:41:52.072Z,3.51
2016-03-17T07:42:51.981Z,3.48
2016-03-17T07:43:51.937Z,3.58
2016-03-17T07:44:51.909Z,3.62
2016-03-17T07:45:51.865Z,3.55
2016-03-17T07:46:51.789Z,3.63
2016-03-17T07:47:51.808Z,3.55
2016-03-17T07:48:51.655Z,3.65
2016-03-17T07:49:51.641Z,3.59
2016-03-17T07:50:51.566Z,3.63
2016-03-17T07:51:51.475Z,3.65
2016-03-17T07:52:51.415Z,3.59
2016-03-17T07:53:51.418Z,3.73
2016-03-17T07:54:51.310Z,3.65
2016-03-17T07:55:51.252Z,3.68
2016-03-17T07:56:51.176Z,3.73
2016-03-17T07:57:51.241Z,3.83
2016-03-17T07:58:51.057Z,3.76
2016-03-17T07:59:50.996Z,3.69
2016-03-17T08:00:50.952Z,3.69
2016-03-17T08:01:50.876Z,3.74
2016-03-17T08:02:50.863Z,3.66
2016-03-17T08:03:50.741Z,3.66
2016-03-17T08:04:50.682Z,3.73
2016-03-17T08:05:50.637Z,3.65
2016-03-17T08:06:50.645Z,3.58
2016-03-17T08:07:50.554Z,3.66
2016-03-17T08:08:50.509Z,3.7
2016-03-17T08:09:50.419Z,3.7
2016-03-17T08:10:50.343Z,3.68
2016-03-17T08:11:50.346Z,3.6
2016-03-17T08:12:50.256Z,3.78
2016-03-17T08:13:50.180Z,3.74
2016-03-17T08:14:50.104Z,3.8
2016-03-17T08:15:50.076Z,3.78
2016-03-17T08:16:50.000Z,3.69
2016-03-17T08:17:49.925Z,3.78
2016-03-17T08:18:49.896Z,3.83
2016-03-17T08:19:49.837Z,3.87
2016-03-17T08:20:49.792Z,3.84
2016-03-17T08:21:49.686Z,3.8
2016-03-17T08:22:49.641Z,3.84
2016-03-17T08:23:49.410Z,3.86
2016-03-17T08:24:49.537Z,3.81
2016-03-17T08:25:49.446Z,3.84
2016-03-17T08:26:49.418Z,3.87
2016-03-17T08:27:49.358Z,3.87
2016-03-17T08:28:49.267Z,3.92
2016-03-17T08:29:49.269Z,3.98
2016-03-17T08:30:49.163Z,3.98
2016-03-17T08:31:49.134Z,3.98
2016-03-17T08:32:49.027Z,3.99
2016-03-17T08:33:49.062Z,3.8
2016-03-17T08:34:48.940Z,3.81
2016-03-17T08:35:48.927Z,3.76
2016-03-17T08:36:48.821Z,3.88
2016-03-17T08:37:48.760Z,3.95
2016-03-17T08:38:48.685Z,4.01
2016-03-17T08:39:48.672Z,4.05
2016-03-17T08:40:48.596Z,4.1
2016-03-17T08:41:48.521Z,4.06
2016-03-17T08:42:48.445Z,4.19
2016-03-17T08:43:48.431Z,4.14
2016-03-17T08:44:48.357Z,4.06
2016-03-17T08:45:48.281Z,4.22
2016-03-17T08:46:48.206Z,4.22
2016-03-17T08:47:48.161Z,4.23
2016-03-17T08:48:48.117Z,4.17
2016-03-17T08:49:48.042Z,4.23
2016-03-17T08:50:47.967Z,4.34
2016-03-17T08:51:47.922Z,4.35
2016-03-17T08:52:47.863Z,4.3
2016-03-17T08:53:47.866Z,4.38
2016-03-17T08:54:47.775Z,4.38
2016-03-17T08:55:47.699Z,4.48
2016-03-17T08:56:47.639Z,4.41
2016-03-17T08:57:47.626Z,4.45
2016-03-17T08:58:47.363Z,4.5
2016-03-17T08:59:47.460Z,4.44
2016-03-17T09:00:47.416Z,4.38
2016-03-17T09:01:47.324Z,4.48
2016-03-17T09:02:47.140Z,4.42
2016-03-17T09:03:47.392Z,4.48
2016-03-17T09:04:47.208Z,4.48
2016-03-17T09:05:47.085Z,4.42
2016-03-17T09:06:47.062Z,4.5
2016-03-17T09:07:47.033Z,4.66
2016-03-17T09:08:46.958Z,4.6
2016-03-17T09:09:46.914Z,4.74
2016-03-17T09:10:46.807Z,4.53
2016-03-17T09:11:46.778Z,4.63
2016-03-17T09:12:46.687Z,4.63
2016-03-17T09:13:46.690Z,4.68
2016-03-17T09:14:46.568Z,4.77
2016-03-17T09:15:46.555Z,4.63
2016-03-17T09:16:46.526Z,4.63
2016-03-17T09:17:46.403Z,4.84
2016-03-17T09:18:46.359Z,4.94
2016-03-17T09:19:46.674Z,4.89
2016-03-17T09:20:46.208Z,4.87
2016-03-17T09:21:46.242Z,4.82
2016-03-17T09:22:47.729Z,4.94
2016-03-17T09:23:46.061Z,4.89
2016-03-17T09:24:45.985Z,5
2016-03-17T09:25:46.128Z,5.04
2016-03-17T09:26:45.837Z,4.99
2016-03-17T09:27:45.825Z,5.1
2016-03-17T09:28:45.890Z,5.25
2016-03-17T09:29:45.753Z,5.17
2016-03-17T09:30:45.661Z,5.12
2016-03-17T09:31:45.617Z,5.18
2016-03-17T09:32:45.542Z,5.08
2016-03-17T09:33:45.482Z,5.11
2016-03-17T09:34:45.391Z,5.14
2016-03-17T09:35:45.378Z,5.15
2016-03-17T09:36:45.287Z,5.2
2016-03-17T09:37:45.258Z,5.32
2016-03-17T09:38:45.277Z,5.41
2016-03-17T09:39:45.186Z,5.44
2016-03-17T09:40:45.080Z,5.53
2016-03-17T09:41:45.035Z,5.5
2016-03-17T09:42:44.991Z,5.64
2016-03-17T09:43:44.883Z,5.41
2016-03-17T09:44:44.902Z,5.62
2016-03-17T09:45:44.796Z,5.53
2016-03-17T09:46:44.720Z,5.71
2016-03-17T09:47:44.691Z,5.82
2016-03-17T09:48:44.585Z,5.9
2016-03-17T09:49:44.525Z,5.87
2016-03-17T09:50:44.543Z,6.05
2016-03-17T09:51:44.405Z,6.09
2016-03-17T09:52:44.377Z,6.17
2016-03-17T09:53:44.333Z,6.31
2016-03-17T09:54:44.258Z,6.33
2016-03-17T09:55:44.212Z,6.36
2016-03-17T09:56:44.200Z,6.59
2016-03-17T09:57:44.094Z,6.66
2016-03-17T09:58:44.049Z,6.84
2016-03-17T09:59:43.787Z,6.82
2016-03-17T10:00:43.929Z,6.95
2016-03-17T10:01:43.839Z,7
2016-03-17T10:02:43.857Z,7.03
2016-03-17T10:03:43.734Z,7.11
2016-03-17T10:04:43.706Z,7.24
2016-03-17T10:05:43.662Z,7.42
2016-03-17T10:06:43.570Z,7.43
2016-03-17T10:07:43.573Z,7.69
2016-03-17T10:08:43.483Z,7.7
2016-03-17T10:09:43.408Z,7.58
2016-03-17T10:10:43.347Z,7.66
2016-03-17T10:11:43.287Z,7.88
2016-03-17T10:12:43.275Z,8.08
2016-03-17T10:13:43.137Z,8.1
2016-03-17T10:14:43.076Z,8.15
2016-03-17T10:15:43.033Z,8.1
2016-03-17T10:16:43.019Z,8.37
2016-03-17T10:17:42.975Z,8.48
2016-03-17T10:18:42.884Z,8.44
2016-03-17T10:19:42.855Z,8.63
2016-03-17T10:20:42.765Z,8.79
2016-03-17T10:21:42.768Z,8.89
2016-03-17T10:22:42.660Z,8.97
2016-03-17T10:23:42.663Z,9.06
2016-03-17T10:24:42.540Z,9.19
2016-03-17T10:25:42.512Z,9.29
2016-03-17T10:26:42.437Z,9.39
2016-03-17T10:27:42.393Z,9.32
2016-03-17T10:28:42.287Z,9.4
2016-03-17T10:29:42.257Z,9.31
2016-03-17T10:30:42.245Z,9.58
2016-03-17T10:31:42.169Z,9.69
2016-03-17T10:32:42.110Z,9.76
2016-03-17T10:33:42.081Z,9.76
2016-03-17T10:34:41.974Z,9.95
2016-03-17T10:35:41.930Z,10.01
2016-03-17T10:36:41.886Z,9.95
2016-03-17T10:37:41.889Z,10.09
2016-03-17T10:38:41.767Z,10.15
2016-03-17T10:39:41.753Z,10.15
2016-03-17T10:40:41.662Z,10.28
2016-03-17T10:41:41.852Z,10.38
2016-03-17T10:42:41.589Z,10.42
2016-03-17T10:43:41.514Z,10.48
2016-03-17T10:44:41.439Z,10.46
2016-03-17T10:45:41.394Z,10.64
2016-03-17T10:46:41.319Z,10.68
2016-03-17T10:47:41.291Z,10.76
2016-03-17T10:48:41.263Z,10.86
2016-03-17T10:49:41.186Z,11
2016-03-17T10:50:41.080Z,11
2016-03-17T10:51:41.082Z,11.18
2016-03-17T10:52:41.038Z,11.22
2016-03-17T10:53:40.963Z,11.32
2016-03-17T10:54:40.904Z,11.6
2016-03-17T10:55:40.890Z,11.52
2016-03-17T10:56:40.862Z,11.9
2016-03-17T10:57:40.739Z,11.83
2016-03-17T10:58:40.680Z,11.88
2016-03-17T10:59:40.448Z,11.94
2016-03-17T11:00:40.591Z,11.91
2016-03-17T11:01:40.515Z,11.91
2016-03-17T11:02:40.425Z,12.02
2016-03-17T11:03:40.412Z,12.07
2016-03-17T11:04:40.336Z,12.07
2016-03-17T11:05:40.339Z,12.24
2016-03-17T11:06:40.232Z,12.25
2016-03-17T11:07:40.189Z,12.31
2016-03-17T11:08:40.159Z,12.45
2016-03-17T11:09:40.133Z,12.53
2016-03-17T11:10:40.059Z,12.68
2016-03-17T11:11:40.030Z,12.65
2016-03-17T11:12:39.939Z,12.7
2016-03-17T11:13:39.911Z,12.73
2016-03-17T11:14:39.897Z,12.86
2016-03-17T11:15:39.823Z,12.83
2016-03-17T11:16:39.794Z,12.87
2016-03-17T11:17:39.671Z,12.94
2016-03-17T11:18:39.674Z,12.94
2016-03-17T11:19:39.567Z,13.19
2016-03-17T11:20:39.507Z,13.2
2016-03-17T11:21:39.479Z,13.19
2016-03-17T11:22:39.465Z,13.3
2016-03-17T11:23:39.328Z,13.18
2016-03-17T11:24:39.299Z,13.31
2016-03-17T11:25:39.286Z,13.18
2016-03-17T11:26:39.257Z,13.39
2016-03-17T11:27:39.136Z,13.46
2016-03-17T11:28:39.107Z,13.63
2016-03-17T11:29:39.047Z,13.62
2016-03-17T11:30:39.097Z,13.59
2016-03-17T11:31:38.927Z,13.67
2016-03-17T11:32:38.914Z,13.65
2016-03-17T11:33:38.854Z,13.68
2016-03-17T11:34:38.795Z,13.6
2016-03-17T11:35:38.766Z,13.85
2016-03-17T11:36:38.707Z,13.83
2016-03-17T11:37:38.615Z,13.89
2016-03-17T11:38:38.634Z,14.03
2016-03-17T11:39:38.543Z,14.17
2016-03-17T11:40:38.468Z,14.17
2016-03-17T11:41:38.439Z,14
2016-03-17T11:42:38.364Z,14.07
2016-03-17T11:43:38.319Z,14.12
2016-03-17T11:44:38.275Z,14.29
2016-03-17T11:45:38.247Z,14.29
2016-03-17T11:46:38.171Z,14.33
2016-03-17T11:47:38.142Z,14.32
2016-03-17T11:48:38.083Z,14.44
2016-03-17T11:49:38.008Z,14.5
2016-03-17T11:50:37.963Z,14.53
2016-03-17T11:51:37.903Z,14.36
2016-03-17T11:52:37.922Z,14.3
2016-03-17T11:53:37.814Z,14.33
2016-03-17T11:54:37.786Z,14.41
2016-03-17T11:55:37.694Z,14.47
2016-03-17T11:56:37.635Z,14.47
2016-03-17T11:57:37.591Z,14.47
2016-03-17T11:58:37.610Z,14.5
2016-03-17T11:59:37.503Z,14.55
2016-03-17T12:00:37.510Z,14.54
2016-03-17T12:01:37.388Z,14.48
2016-03-17T12:02:37.359Z,14.33
2016-03-17T12:03:37.268Z,14.32
2016-03-17T12:04:37.224Z,14.37
2016-03-17T12:05:37.195Z,14.33
2016-03-17T12:06:37.120Z,14.37
2016-03-17T12:07:37.201Z,14.62
2016-03-17T12:08:37.110Z,14.63
2016-03-17T12:09:37.004Z,14.6
2016-03-17T12:10:36.959Z,14.73
2016-03-17T12:11:36.992Z,14.78
2016-03-17T12:12:36.855Z,14.37
2016-03-17T12:13:36.843Z,14.47
2016-03-17T12:14:36.783Z,14.6
2016-03-17T12:15:36.644Z,14.73
2016-03-17T12:16:36.616Z,14.53
2016-03-17T12:17:36.572Z,14.54
2016-03-17T12:18:36.574Z,14.44
2016-03-17T12:19:36.530Z,14.44
2016-03-17T12:20:36.314Z,14.68
2016-03-17T12:21:36.395Z,14.55
2016-03-17T12:22:36.397Z,14.47
2016-03-17T12:23:36.291Z,14.22
2016-03-17T12:24:36.294Z,14.43
2016-03-17T12:25:36.171Z,14.45
2016-03-17T12:26:36.174Z,14.54
2016-03-17T12:27:36.083Z,14.66
2016-03-17T12:28:36.085Z,14.55
2016-03-17T12:29:35.994Z,14.55
2016-03-17T12:30:35.966Z,14.5
2016-03-17T12:31:35.844Z,14.66
2016-03-17T12:32:35.799Z,14.63
2016-03-17T12:33:35.787Z,14.69
2016-03-17T12:34:35.695Z,14.6
2016-03-17T12:35:35.651Z,14.3
2016-03-17T12:36:35.654Z,14.3
2016-03-17T12:37:35.595Z,14.48
2016-03-17T12:38:35.550Z,14.43
2016-03-17T12:39:35.506Z,14.45
2016-03-17T12:40:35.399Z,14.32
2016-03-17T12:41:35.355Z,14.26
2016-03-17T12:42:35.343Z,14.25
2016-03-17T12:43:35.275Z,14.4
2016-03-17T12:44:35.204Z,14.26
2016-03-17T12:45:35.163Z,14
2016-03-17T12:46:35.043Z,14.1
2016-03-17T12:47:35.065Z,14.14
2016-03-17T12:48:34.951Z,14.15
2016-03-17T12:49:34.934Z,14.11
2016-03-17T12:50:34.870Z,14.11
2016-03-17T12:51:34.774Z,13.75
2016-03-17T12:52:34.804Z,13.71
2016-03-17T12:53:34.725Z,13.87
2016-03-17T12:54:34.773Z,13.63
2016-03-17T12:55:34.634Z,13.49
2016-03-17T12:56:34.495Z,13.15
2016-03-17T12:57:34.433Z,13.42
2016-03-17T12:58:34.545Z,13.62
2016-03-17T12:59:34.344Z,13.83
2016-03-17T13:00:34.329Z,13.89
2016-03-17T13:01:34.253Z,13.7
2016-03-17T13:02:34.271Z,13.57
2016-03-17T13:03:34.163Z,13.68
2016-03-17T13:04:34.104Z,13.71
2016-03-17T13:05:34.076Z,13.67
2016-03-17T13:06:33.657Z,13.67
2016-03-17T13:07:33.947Z,13.56
2016-03-17T13:08:33.872Z,13.74
2016-03-17T13:09:33.811Z,13.92
2016-03-17T13:10:33.799Z,13.96
2016-03-17T13:11:33.927Z,14.04
2016-03-17T13:12:33.883Z,14.1
2016-03-17T13:13:33.667Z,14.17
2016-03-17T13:14:33.560Z,13.9
2016-03-17T13:15:33.547Z,14.07